Time;durP1;ratioP1;P1;durP2;ratioP2;P2;SDS_P1;SDS_P2;PMS_P1;PMS_P2;Temp;Humidity;BMP_temperature;BMP_pressure;BME280_temperature;BME280_humidity;BME280_pressure;Samples;Min_cycle;Max_cycle;Signal;HPM_P1;HPM_P2
2022/03/05 00:01:56;;;;;;;18.48;9.25;;;-0.50;99.90;;;;;;5018817;28;20375;-94
2022/03/05 00:04:22;;;;;;;15.90;7.82;;;-0.50;99.90;;;;;;4997441;28;20037;-94
2022/03/05 00:06:49;;;;;;;18.75;8.50;;;-0.50;99.90;;;;;;5001914;28;20128;-93
2022/03/05 00:09:17;;;;;;;17.95;8.48;;;-0.50;99.90;;;;;;4998912;28;20491;-94
2022/03/05 00:11:43;;;;;;;17.92;8.57;;;-0.50;99.90;;;;;;5012393;28;20038;-95
2022/03/05 00:14:09;;;;;;;17.67;8.68;;;-0.60;99.90;;;;;;4994965;28;20045;-93
2022/03/05 00:16:34;;;;;;;19.85;9.20;;;-0.50;99.90;;;;;;5010663;28;20088;-93
2022/03/05 00:19:00;;;;;;;16.88;8.48;;;-0.60;99.90;;;;;;5014066;28;20058;-95
2022/03/05 00:21:26;;;;;;;17.48;8.50;;;-0.60;99.90;;;;;;5014625;28;20057;-92
2022/03/05 00:23:51;;;;;;;17.80;8.52;;;-0.60;99.90;;;;;;4997017;28;20046;-94
2022/03/05 00:26:17;;;;;;;19.13;9.02;;;-0.60;99.90;;;;;;5018204;28;20049;-94
2022/03/05 00:28:43;;;;;;;19.10;9.27;;;-0.60;99.90;;;;;;4998835;28;20140;-92
2022/03/05 00:31:09;;;;;;;18.73;10.07;;;-0.60;99.90;;;;;;4997083;28;20042;-93
2022/03/05 00:33:34;;;;;;;19.15;9.10;;;-0.60;99.90;;;;;;5016460;28;20437;-91
2022/03/05 00:36:00;;;;;;;18.17;8.50;;;-0.70;99.90;;;;;;5013856;28;20041;-93
2022/03/05 00:38:26;;;;;;;20.80;9.50;;;-0.70;99.90;;;;;;4997091;28;20061;-93
2022/03/05 00:40:51;;;;;;;17.83;9.43;;;-0.70;99.90;;;;;;5017964;28;20045;-91
2022/03/05 00:43:17;;;;;;;19.50;9.63;;;-0.70;99.90;;;;;;5009721;28;20054;-93
2022/03/05 00:45:43;;;;;;;19.08;9.65;;;-0.70;99.90;;;;;;5013543;28;20057;-92
2022/03/05 00:48:09;;;;;;;19.40;9.48;;;-0.80;99.90;;;;;;4997179;28;20191;-91
2022/03/05 00:50:35;;;;;;;19.35;9.45;;;-0.80;99.90;;;;;;5012905;28;20100;-92
2022/03/05 00:53:01;;;;;;;20.55;9.25;;;-0.80;99.90;;;;;;5012854;28;20048;-92
2022/03/05 00:55:26;;;;;;;20.13;9.85;;;-0.80;99.90;;;;;;4998794;28;20129;-91
2022/03/05 00:57:52;;;;;;;19.73;10.18;;;-0.80;99.90;;;;;;4993006;28;20498;-90
2022/03/05 01:00:18;;;;;;;20.42;10.15;;;-0.90;99.90;;;;;;5015096;28;20057;-91
2022/03/05 01:02:43;;;;;;;19.42;9.02;;;-0.90;99.90;;;;;;5001065;28;20064;-91
2022/03/05 01:05:10;;;;;;;19.77;8.90;;;-0.90;99.90;;;;;;5014355;28;20068;-91
2022/03/05 01:07:36;;;;;;;18.55;9.07;;;-0.90;99.90;;;;;;4999179;28;20054;-90
2022/03/05 01:10:03;;;;;;;17.60;8.68;;;-0.90;99.90;;;;;;5004444;28;20085;-91
2022/03/05 01:12:29;;;;;;;20.83;9.40;;;-0.90;99.90;;;;;;4994645;28;20101;-90
2022/03/05 01:14:55;;;;;;;19.35;9.20;;;-0.90;99.90;;;;;;4992084;28;20224;-92
2022/03/05 01:17:21;;;;;;;17.35;8.95;;;-0.90;99.90;;;;;;4996103;28;20042;-90
2022/03/05 01:19:47;;;;;;;19.48;8.88;;;-0.90;99.90;;;;;;5013026;28;20363;-91
2022/03/05 01:22:13;;;;;;;20.17;9.40;;;-0.90;99.90;;;;;;5016199;28;20544;-91
2022/03/05 01:24:39;;;;;;;21.25;9.75;;;-1.00;99.90;;;;;;5011948;28;20657;-91
2022/03/05 01:27:05;;;;;;;19.17;8.85;;;-1.00;99.90;;;;;;5013613;28;20038;-93
2022/03/05 01:29:30;;;;;;;20.08;9.43;;;-1.00;99.90;;;;;;5013717;28;20045;-90
2022/03/05 01:31:56;;;;;;;21.23;9.15;;;-1.00;99.90;;;;;;4998853;28;20494;-90
2022/03/05 01:34:22;;;;;;;18.95;9.45;;;-1.00;99.90;;;;;;5012906;28;20042;-92
2022/03/05 01:36:48;;;;;;;19.27;9.20;;;-1.00;99.90;;;;;;4998114;28;20139;-92
2022/03/05 01:39:14;;;;;;;19.92;9.20;;;-1.00;99.90;;;;;;5013098;28;20114;-90
2022/03/05 01:41:40;;;;;;;21.10;10.00;;;-1.00;99.90;;;;;;5010727;28;20465;-90
2022/03/05 01:44:06;;;;;;;19.52;9.82;;;-1.10;99.90;;;;;;5007743;28;20295;-91
2022/03/05 01:46:37;;;;;;;17.88;9.02;;;-1.10;99.90;;;;;;4994898;28;20054;-91
2022/03/05 01:49:06;;;;;;;22.27;9.18;;;-1.10;99.90;;;;;;4997494;28;20097;-90
2022/03/05 01:51:32;;;;;;;20.55;9.02;;;-1.10;99.90;;;;;;5002170;28;20108;-91
2022/03/05 01:53:57;;;;;;;21.50;8.95;;;-1.10;99.90;;;;;;5016782;28;20038;-92
2022/03/05 01:56:25;;;;;;;18.90;8.32;;;-1.10;99.90;;;;;;4997271;28;20045;-91
2022/03/05 01:58:52;;;;;;;18.45;8.40;;;-1.20;99.90;;;;;;4998343;28;20382;-92
2022/03/05 02:01:22;;;;;;;19.38;8.73;;;-1.20;99.90;;;;;;5013229;28;20034;-91
2022/03/05 02:03:48;;;;;;;18.57;8.87;;;-1.20;99.90;;;;;;5014279;28;20058;-93
2022/03/05 02:06:14;;;;;;;16.98;8.68;;;-1.20;99.90;;;;;;5016081;28;20324;-92
2022/03/05 02:08:40;;;;;;;18.92;8.82;;;-1.20;99.90;;;;;;4996862;28;20082;-91
2022/03/05 02:11:06;;;;;;;21.27;8.73;;;-1.20;99.90;;;;;;4996430;28;20042;-90
2022/03/05 02:13:31;;;;;;;19.17;9.07;;;-1.20;99.90;;;;;;4999362;28;20061;-93
2022/03/05 02:15:58;;;;;;;16.15;8.48;;;-1.20;99.90;;;;;;5020222;28;20065;-92
2022/03/05 02:18:24;;;;;;;19.00;8.25;;;-1.30;99.90;;;;;;5021971;28;20028;-90
2022/03/05 02:20:51;;;;;;;18.85;8.35;;;-1.30;99.90;;;;;;5006056;28;20049;-91
2022/03/05 02:23:17;;;;;;;19.80;8.50;;;-1.30;99.90;;;;;;5002161;28;20399;-91
2022/03/05 02:25:56;;;;;;;19.33;8.85;;;-1.30;99.90;;;;;;4999736;28;20140;-91
2022/03/05 02:28:23;;;;;;;17.50;8.20;;;-1.20;99.90;;;;;;4998459;28;20406;-91
2022/03/05 02:30:49;;;;;;;17.38;7.65;;;-1.30;99.90;;;;;;5020508;28;20049;-92
2022/03/05 02:33:15;;;;;;;21.20;7.45;;;-1.30;99.90;;;;;;5007306;28;20045;-91
2022/03/05 02:35:45;;;;;;;17.35;7.10;;;-1.30;99.90;;;;;;5018424;28;20301;-92
2022/03/05 02:38:16;;;;;;;16.60;6.28;;;-1.30;99.90;;;;;;5003426;28;20045;-91
2022/03/05 02:40:43;;;;;;;17.30;8.00;;;-1.40;99.90;;;;;;5019132;28;20050;-92
2022/03/05 02:43:09;;;;;;;18.05;8.73;;;-1.40;99.90;;;;;;5017877;28;20426;-91
2022/03/05 02:45:35;;;;;;;15.38;7.47;;;-1.40;99.90;;;;;;5005666;28;20120;-92
2022/03/05 02:48:02;;;;;;;16.17;7.57;;;-1.40;99.90;;;;;;4997035;28;20073;-91
2022/03/05 02:50:29;;;;;;;15.40;7.50;;;-1.40;99.90;;;;;;4985639;28;20054;-93
2022/03/05 02:52:54;;;;;;;17.10;7.18;;;-1.40;99.90;;;;;;4995693;28;20049;-91
2022/03/05 02:55:20;;;;;;;17.42;6.75;;;-1.40;99.90;;;;;;4991973;28;20041;-90
2022/03/05 02:57:46;;;;;;;15.88;7.50;;;-1.40;99.90;;;;;;4995519;28;20045;-91
2022/03/05 03:00:12;;;;;;;16.45;7.75;;;-1.40;99.90;;;;;;5015251;28;20137;-88
2022/03/05 03:02:38;;;;;;;14.85;6.50;;;-1.40;99.90;;;;;;4993703;28;20092;-92
2022/03/05 03:05:05;;;;;;;18.65;7.60;;;-1.40;99.90;;;;;;5019902;28;20045;-91
2022/03/05 03:07:31;;;;;;;17.48;7.50;;;-1.40;99.90;;;;;;5025354;28;20037;-90
2022/03/05 03:09:58;;;;;;;18.25;7.95;;;-1.50;99.90;;;;;;5007355;28;20048;-91
2022/03/05 03:12:27;;;;;;;16.02;7.43;;;-1.40;99.90;;;;;;4998303;28;20124;-91
2022/03/05 03:14:52;;;;;;;15.93;7.20;;;-1.40;99.90;;;;;;4985931;28;20042;-91
2022/03/05 03:17:18;;;;;;;18.77;7.55;;;-1.50;99.90;;;;;;5016809;28;20044;-90
2022/03/05 03:19:44;;;;;;;16.92;7.10;;;-1.40;99.90;;;;;;4998758;28;20518;-91
2022/03/05 03:22:10;;;;;;;17.10;7.32;;;-1.40;99.90;;;;;;4999929;28;20045;-91
2022/03/05 03:24:35;;;;;;;15.48;6.82;;;-1.40;99.90;;;;;;4997594;28;20073;-90
2022/03/05 03:27:02;;;;;;;17.40;7.03;;;-1.40;99.90;;;;;;4983792;28;20550;-91
2022/03/05 03:29:27;;;;;;;15.32;6.68;;;-1.40;99.90;;;;;;5006872;28;20047;-90
2022/03/05 03:31:53;;;;;;;16.65;7.38;;;-1.40;99.90;;;;;;4998578;28;20140;-90
2022/03/05 03:34:19;;;;;;;15.50;7.30;;;-1.30;99.90;;;;;;5014010;28;20124;-91
2022/03/05 03:36:45;;;;;;;14.43;7.15;;;-1.40;99.90;;;;;;5000498;28;20057;-91
2022/03/05 03:39:10;;;;;;;16.08;7.43;;;-1.40;99.90;;;;;;5015973;28;20038;-91
2022/03/05 03:41:36;;;;;;;16.73;7.22;;;-1.40;99.90;;;;;;5012710;28;20081;-91
2022/03/05 03:44:02;;;;;;;16.48;7.47;;;-1.50;99.90;;;;;;5019513;28;20163;-90
2022/03/05 03:46:29;;;;;;;15.88;7.72;;;-1.40;99.90;;;;;;5020221;28;20102;-88
2022/03/05 03:48:54;;;;;;;18.58;8.75;;;-1.40;99.90;;;;;;5011472;28;20054;-91
2022/03/05 03:51:20;;;;;;;17.63;7.85;;;-1.50;99.90;;;;;;4999838;28;20451;-90
2022/03/05 03:53:46;;;;;;;15.93;7.80;;;-1.40;99.90;;;;;;5001829;28;20787;-92
2022/03/05 03:56:13;;;;;;;17.73;7.85;;;-1.40;99.90;;;;;;5016699;28;20080;-91
2022/03/05 03:58:38;;;;;;;17.65;8.20;;;-1.50;99.90;;;;;;5009824;28;20091;-90
2022/03/05 04:01:04;;;;;;;18.23;7.07;;;-1.50;99.90;;;;;;4997537;28;20041;-91
2022/03/05 04:03:30;;;;;;;16.67;7.65;;;-1.40;99.90;;;;;;4995437;28;20041;-90
2022/03/05 04:05:56;;;;;;;20.52;8.77;;;-1.50;99.90;;;;;;5013946;28;20154;-90
2022/03/05 04:11:07;;;;;;;16.10;6.68;;;-1.50;99.90;;;;;;5005167;28;20045;-91
2022/03/05 04:13:33;;;;;;;17.90;7.40;;;-1.50;99.90;;;;;;5020254;28;20049;-90
2022/03/05 04:15:59;;;;;;;15.30;6.80;;;-1.50;99.90;;;;;;4999979;28;20046;-90
2022/03/05 04:18:24;;;;;;;17.75;7.40;;;-1.50;99.90;;;;;;4999665;28;20076;-90
2022/03/05 04:20:50;;;;;;;18.15;7.70;;;-1.50;99.90;;;;;;5001401;28;20112;-90
2022/03/05 04:23:16;;;;;;;18.38;7.25;;;-1.50;99.90;;;;;;4992111;28;20042;-91
2022/03/05 04:25:42;;;;;;;17.25;7.03;;;-1.60;99.90;;;;;;5031394;28;20017;-91
2022/03/05 04:28:08;;;;;;;17.13;7.40;;;-1.60;99.90;;;;;;5010277;28;20048;-90
2022/03/05 04:30:35;;;;;;;14.35;6.15;;;-1.60;99.90;;;;;;5025871;28;20038;-90
2022/03/05 04:33:01;;;;;;;15.93;7.15;;;-1.60;99.90;;;;;;5019907;28;20116;-90
2022/03/05 04:35:26;;;;;;;15.35;7.28;;;-1.60;99.90;;;;;;5024581;28;20033;-90
2022/03/05 04:37:52;;;;;;;17.98;7.30;;;-1.60;99.90;;;;;;5021858;28;20042;-90
2022/03/05 04:40:18;;;;;;;18.25;7.10;;;-1.60;99.90;;;;;;5011925;28;20109;-90
2022/03/05 04:42:44;;;;;;;16.40;7.63;;;-1.60;99.90;;;;;;5018320;28;20101;-91
2022/03/05 04:45:10;;;;;;;18.00;7.53;;;-1.70;99.90;;;;;;5007519;28;20052;-90
2022/03/05 04:47:36;;;;;;;17.70;7.57;;;-1.70;99.90;;;;;;5003612;28;20045;-91
2022/03/05 04:50:06;;;;;;;15.43;6.93;;;-1.60;99.90;;;;;;5021040;28;20042;-90
2022/03/05 04:52:31;;;;;;;16.42;6.93;;;-1.70;99.90;;;;;;5034834;28;20075;-91
2022/03/05 04:54:57;;;;;;;16.98;7.45;;;-1.60;99.90;;;;;;5050404;28;20021;-91
2022/03/05 04:57:24;;;;;;;16.70;6.70;;;-1.60;99.90;;;;;;5022873;28;20057;-90
2022/03/05 04:59:51;;;;;;;16.13;7.35;;;-1.70;99.90;;;;;;5014998;28;20402;-92
2022/03/05 05:02:17;;;;;;;17.77;7.25;;;-1.60;99.90;;;;;;5021728;28;20150;-92
2022/03/05 05:04:42;;;;;;;16.33;6.38;;;-1.70;99.90;;;;;;5002133;28;20045;-91
2022/03/05 05:07:08;;;;;;;17.95;6.65;;;-1.80;99.90;;;;;;5020390;28;20098;-91
2022/03/05 05:09:34;;;;;;;17.42;7.40;;;-1.70;99.90;;;;;;4998639;28;20049;-91
2022/03/05 05:12:00;;;;;;;17.23;7.47;;;-1.70;99.90;;;;;;5019255;28;20077;-91
2022/03/05 05:14:26;;;;;;;16.80;7.03;;;-1.80;99.90;;;;;;5006406;28;20124;-91
2022/03/05 05:16:51;;;;;;;17.73;7.68;;;-1.70;99.90;;;;;;5019235;28;20070;-90
2022/03/05 05:19:29;;;;;;;19.15;7.57;;;-1.70;99.90;;;;;;5003607;28;20037;-91
2022/03/05 05:21:56;;;;;;;16.60;6.28;;;-1.70;99.90;;;;;;4999289;28;20041;-92
2022/03/05 05:24:24;;;;;;;15.30;6.82;;;-1.70;99.90;;;;;;5003030;28;20037;-90
2022/03/05 05:26:50;;;;;;;16.02;7.00;;;-1.60;99.90;;;;;;5003479;28;20136;-89
2022/03/05 05:29:16;;;;;;;17.25;6.75;;;-1.60;99.90;;;;;;5016244;28;20917;-91
2022/03/05 05:31:42;;;;;;;15.80;7.40;;;-1.60;99.90;;;;;;4996407;28;20446;-89
2022/03/05 05:34:07;;;;;;;17.48;8.27;;;-1.60;99.90;;;;;;4999113;28;20109;-91
2022/03/05 05:36:33;;;;;;;16.05;6.57;;;-1.60;99.90;;;;;;5013418;28;20387;-91
2022/03/05 05:38:59;;;;;;;17.63;6.85;;;-1.50;99.90;;;;;;5006654;28;20092;-89
2022/03/05 05:41:25;;;;;;;14.30;6.72;;;-1.60;99.90;;;;;;5001097;28;20137;-90
2022/03/05 05:43:50;;;;;;;17.95;6.90;;;-1.60;99.90;;;;;;5018771;28;20077;-90
2022/03/05 05:46:16;;;;;;;14.77;6.68;;;-1.60;99.90;;;;;;5007838;28;20045;-88
2022/03/05 05:48:41;;;;;;;19.35;7.38;;;-1.60;99.90;;;;;;4998160;28;20119;-90
2022/03/05 05:51:07;;;;;;;14.98;6.30;;;-1.60;99.90;;;;;;4998850;28;20053;-91
2022/03/05 05:53:33;;;;;;;16.77;7.40;;;-1.60;99.90;;;;;;5007976;28;20045;-90
2022/03/05 05:55:59;;;;;;;15.10;6.15;;;-1.60;99.90;;;;;;5022478;28;20057;-89
2022/03/05 05:58:24;;;;;;;17.10;6.70;;;-1.60;99.90;;;;;;5026743;28;20037;-91
2022/03/05 06:00:50;;;;;;;16.90;6.82;;;-1.70;99.90;;;;;;5002528;28;20045;-91
2022/03/05 06:03:16;;;;;;;17.83;6.97;;;-1.70;99.90;;;;;;5017816;28;20061;-90
2022/03/05 06:05:42;;;;;;;17.77;8.07;;;-1.70;99.90;;;;;;5000834;28;20116;-91
2022/03/05 06:08:08;;;;;;;17.45;7.07;;;-1.70;99.90;;;;;;5002336;28;20462;-92
2022/03/05 06:10:34;;;;;;;16.50;7.47;;;-1.70;99.90;;;;;;5001416;28;20046;-92
2022/03/05 06:13:00;;;;;;;16.90;7.20;;;-1.70;99.90;;;;;;5017316;28;20048;-89
2022/03/05 06:15:25;;;;;;;19.13;7.18;;;-1.70;99.90;;;;;;5005979;28;20065;-89
2022/03/05 06:17:54;;;;;;;16.02;7.00;;;-1.70;99.90;;;;;;4996700;28;20484;-90
2022/03/05 06:20:21;;;;;;;17.65;6.68;;;-1.70;99.90;;;;;;5000440;28;20528;-88
2022/03/05 06:22:47;;;;;;;17.30;6.65;;;-1.70;99.90;;;;;;5017600;28;20402;-90
2022/03/05 06:25:12;;;;;;;15.88;6.50;;;-1.70;99.90;;;;;;5003224;28;20053;-90
2022/03/05 06:27:38;;;;;;;15.60;6.32;;;-1.70;99.90;;;;;;5014097;28;20041;-91
2022/03/05 06:30:04;;;;;;;17.52;7.05;;;-1.70;99.90;;;;;;4995171;28;20060;-89
2022/03/05 06:32:30;;;;;;;15.68;6.65;;;-1.70;99.90;;;;;;5006821;28;20045;-89
2022/03/05 06:34:56;;;;;;;15.50;6.07;;;-1.70;99.90;;;;;;4999841;28;20045;-89
2022/03/05 06:37:23;;;;;;;15.85;6.65;;;-1.70;99.90;;;;;;5016787;28;20056;-88
2022/03/05 06:39:48;;;;;;;13.48;6.55;;;-1.60;99.90;;;;;;5019555;28;20045;-89
2022/03/05 06:42:15;;;;;;;16.20;6.97;;;-1.70;99.90;;;;;;4999722;28;20064;-88
2022/03/05 06:44:41;;;;;;;14.25;6.45;;;-1.60;99.90;;;;;;4996199;28;20179;-87
2022/03/05 06:47:07;;;;;;;15.20;6.32;;;-1.60;99.90;;;;;;5010278;28;20053;-87
2022/03/05 06:49:33;;;;;;;16.08;5.97;;;-1.60;99.90;;;;;;5006927;28;20508;-88
2022/03/05 06:51:59;;;;;;;14.88;6.00;;;-1.50;99.90;;;;;;5023015;28;20071;-89
2022/03/05 06:54:25;;;;;;;15.80;6.93;;;-1.60;99.90;;;;;;4996752;28;20042;-88
2022/03/05 06:56:51;;;;;;;15.75;6.80;;;-1.50;99.90;;;;;;4999906;28;20080;-88
2022/03/05 06:59:17;;;;;;;15.27;6.43;;;-1.50;99.90;;;;;;5027494;28;20048;-87
2022/03/05 07:01:42;;;;;;;14.95;7.22;;;-1.40;99.90;;;;;;4993364;28;20057;-88
2022/03/05 07:04:08;;;;;;;14.88;7.07;;;-1.40;99.90;;;;;;5002222;28;20120;-87
2022/03/05 07:06:34;;;;;;;15.68;6.53;;;-1.30;99.90;;;;;;5003120;28;20041;-89
2022/03/05 07:09:00;;;;;;;18.00;7.65;;;-1.30;99.90;;;;;;5001980;28;20056;-89
2022/03/05 07:11:26;;;;;;;17.77;7.93;;;-1.30;99.90;;;;;;5005253;28;20115;-89
2022/03/05 07:13:51;;;;;;;15.60;6.47;;;-1.20;99.90;;;;;;5009615;28;20045;-87
2022/03/05 07:16:17;;;;;;;15.15;7.03;;;-1.10;99.90;;;;;;4998457;28;20371;-90
2022/03/05 07:18:43;;;;;;;15.73;7.18;;;-1.10;99.90;;;;;;4997645;28;20041;-89
2022/03/05 07:21:12;;;;;;;14.70;6.63;;;-1.00;99.90;;;;;;5001549;28;20071;-91
2022/03/05 07:23:37;;;;;;;15.60;6.97;;;-1.00;99.90;;;;;;5014482;28;20045;-89
2022/03/05 07:26:03;;;;;;;15.43;7.97;;;-0.90;99.90;;;;;;4995112;28;20146;-92
2022/03/05 07:28:29;;;;;;;16.65;8.07;;;-0.80;99.90;;;;;;4991707;28;20390;-91
2022/03/05 07:30:55;;;;;;;17.75;7.80;;;-0.80;99.90;;;;;;5016526;28;20128;-92
2022/03/05 07:33:22;;;;;;;16.83;8.00;;;-0.70;99.90;;;;;;5023429;28;20076;-91
2022/03/05 07:35:47;;;;;;;17.25;7.60;;;-0.60;99.90;;;;;;5009247;28;20042;-91
2022/03/05 07:38:13;;;;;;;17.05;8.00;;;-0.60;99.90;;;;;;5002959;28;20447;-92
2022/03/05 07:40:39;;;;;;;19.02;8.70;;;-0.40;99.90;;;;;;5002792;28;20036;-93
2022/03/05 07:43:04;;;;;;;18.73;9.23;;;-0.30;99.90;;;;;;4990144;28;20099;-93
2022/03/05 07:45:30;;;;;;;19.00;8.43;;;-0.30;99.90;;;;;;5002890;28;20137;-92
2022/03/05 07:47:56;;;;;;;20.73;8.52;;;-0.20;99.90;;;;;;5003684;28;20053;-92
2022/03/05 07:50:24;;;;;;;17.23;7.93;;;-0.10;99.90;;;;;;5019113;28;20059;-92
2022/03/05 07:52:50;;;;;;;16.77;7.88;;;0.10;99.90;;;;;;5013404;28;20071;-91
2022/03/05 07:55:15;;;;;;;18.55;7.80;;;0.00;99.90;;;;;;5014329;28;20432;-92
2022/03/05 07:57:41;;;;;;;17.67;7.90;;;0.10;99.90;;;;;;5005371;28;20486;-94
2022/03/05 08:00:08;;;;;;;18.35;7.75;;;0.10;99.90;;;;;;5006802;28;20040;-94
2022/03/05 08:02:34;;;;;;;16.73;7.47;;;0.20;99.90;;;;;;5028573;28;20052;-95
2022/03/05 08:05:00;;;;;;;19.20;9.25;;;0.30;99.90;;;;;;5030131;28;20033;-94
2022/03/05 08:07:26;;;;;;;25.88;9.07;;;0.30;99.90;;;;;;5008805;28;20045;-94
2022/03/05 08:09:51;;;;;;;19.52;9.02;;;0.50;99.90;;;;;;5031754;28;20041;-94
2022/03/05 08:12:17;;;;;;;19.25;8.55;;;0.50;99.90;;;;;;5008785;28;20071;-94
2022/03/05 08:14:44;;;;;;;19.20;9.20;;;0.60;99.90;;;;;;5011077;28;20196;-95
2022/03/05 08:17:14;;;;;;;18.58;8.73;;;0.70;99.90;;;;;;5020669;28;20049;-96
2022/03/05 08:19:40;;;;;;;20.63;9.15;;;0.60;99.90;;;;;;5004139;28;20045;-92
2022/03/05 08:22:06;;;;;;;22.00;9.70;;;0.80;99.90;;;;;;5015081;28;20037;-92
2022/03/05 08:24:31;;;;;;;23.88;11.07;;;0.90;99.90;;;;;;5002715;28;20128;-96
2022/03/05 08:26:57;;;;;;;21.33;10.40;;;0.90;99.90;;;;;;5007998;28;20482;-93
2022/03/05 08:29:24;;;;;;;19.77;9.95;;;1.00;99.90;;;;;;5020878;28;20555;-94
2022/03/05 08:31:50;;;;;;;18.83;8.98;;;1.10;99.90;;;;;;5005065;28;20046;-93
2022/03/05 08:34:16;;;;;;;20.55;9.73;;;1.20;99.90;;;;;;5022702;28;20050;-92
2022/03/05 08:36:43;;;;;;;20.58;9.60;;;1.20;99.90;;;;;;5010153;28;20048;-93
2022/03/05 08:39:08;;;;;;;23.55;11.02;;;1.20;99.90;;;;;;4976486;28;20425;-91
2022/03/05 08:41:34;;;;;;;20.48;10.30;;;1.30;99.90;;;;;;5002038;28;20136;-95
2022/03/05 08:44:00;;;;;;;19.05;9.93;;;1.40;99.90;;;;;;5003554;28;20144;-92
2022/03/05 08:46:28;;;;;;;24.33;11.43;;;1.50;99.90;;;;;;5019989;28;20057;-96
2022/03/05 08:48:56;;;;;;;22.63;10.57;;;1.50;99.90;;;;;;5018756;28;20074;-94
2022/03/05 08:51:22;;;;;;;21.95;10.32;;;1.60;99.90;;;;;;5015216;28;20072;-93
2022/03/05 08:53:47;;;;;;;21.42;10.23;;;1.60;99.90;;;;;;4996198;28;20041;-94
2022/03/05 08:56:13;;;;;;;20.85;10.73;;;1.70;99.90;;;;;;4991169;28;20228;-93
2022/03/05 08:58:39;;;;;;;23.38;10.35;;;1.70;99.90;;;;;;5016310;28;20041;-93
2022/03/05 09:01:05;;;;;;;20.27;10.05;;;1.80;99.90;;;;;;4992360;28;20029;-94
2022/03/05 09:03:31;;;;;;;21.50;10.75;;;1.90;99.90;;;;;;5002389;28;20057;-94
2022/03/05 09:05:57;;;;;;;22.08;11.05;;;2.00;99.90;;;;;;5020301;28;20060;-94
2022/03/05 09:08:23;;;;;;;22.60;12.07;;;2.00;99.90;;;;;;5005516;28;20042;-96
2022/03/05 09:10:49;;;;;;;24.90;11.60;;;2.10;99.90;;;;;;5044719;28;20045;-95
2022/03/05 09:13:15;;;;;;;22.85;10.82;;;2.20;99.90;;;;;;5022221;28;20033;-94
2022/03/05 09:15:41;;;;;;;22.17;10.52;;;2.20;99.90;;;;;;5045718;28;20142;-95
2022/03/05 09:18:06;;;;;;;23.23;11.15;;;2.30;99.90;;;;;;5032871;28;20053;-94
2022/03/05 09:20:33;;;;;;;21.98;12.10;;;2.40;99.90;;;;;;5030165;28;20041;-95
2022/03/05 09:23:01;;;;;;;21.83;11.05;;;2.50;99.90;;;;;;5030349;28;20049;-95
2022/03/05 09:25:30;;;;;;;23.40;11.60;;;2.60;99.90;;;;;;5015787;28;20068;-95
2022/03/05 09:27:56;;;;;;;20.17;10.40;;;2.70;99.90;;;;;;5028924;28;20060;-95
2022/03/05 09:30:22;;;;;;;25.20;12.70;;;2.90;99.90;;;;;;5029576;28;20048;-94
2022/03/05 09:32:48;;;;;;;23.38;12.18;;;2.80;99.90;;;;;;5020072;28;20037;-91
2022/03/05 09:35:13;;;;;;;26.77;12.13;;;2.90;99.90;;;;;;5028549;28;20045;-94
2022/03/05 09:37:39;;;;;;;24.45;12.55;;;2.90;99.90;;;;;;5044992;28;20025;-94
2022/03/05 09:40:07;;;;;;;23.92;13.15;;;3.00;99.90;;;;;;5026387;28;20045;-95
2022/03/05 09:42:33;;;;;;;23.65;11.02;;;3.10;99.90;;;;;;5006520;28;20050;-92
2022/03/05 09:44:59;;;;;;;24.88;12.15;;;3.20;99.90;;;;;;5011854;28;20421;-96
2022/03/05 09:47:26;;;;;;;25.25;12.15;;;3.20;99.90;;;;;;5014210;28;20056;-94
2022/03/05 09:49:53;;;;;;;23.42;11.55;;;3.30;99.90;;;;;;5007470;28;20048;-92
2022/03/05 09:52:20;;;;;;;25.50;12.98;;;3.30;99.90;;;;;;4998036;28;20050;-94
2022/03/05 09:54:45;;;;;;;28.80;12.77;;;3.40;99.90;;;;;;5010722;28;20052;-95
2022/03/05 09:57:14;;;;;;;25.05;12.77;;;3.50;99.90;;;;;;5022361;28;20127;-95
2022/03/05 09:59:40;;;;;;;25.40;13.43;;;3.60;99.90;;;;;;5029701;23;20149;-90
2022/03/05 10:02:07;;;;;;;24.23;12.82;;;3.60;99.90;;;;;;5020172;28;20041;-89
2022/03/05 10:04:33;;;;;;;23.25;12.07;;;3.70;99.90;;;;;;5022475;28;20410;-88
2022/03/05 10:07:13;;;;;;;22.38;12.07;;;3.70;99.90;;;;;;5012158;28;20057;-89
2022/03/05 10:09:41;;;;;;;26.23;12.35;;;3.70;99.90;;;;;;5011569;28;20339;-88
2022/03/05 10:12:35;;;;;;;24.27;12.35;;;3.70;99.90;;;;;;5011890;28;20041;-87
2022/03/05 10:15:12;;;;;;;26.30;13.73;;;3.80;99.90;;;;;;5041563;28;20404;-89
2022/03/05 10:18:04;;;;;;;23.13;11.98;;;3.80;99.90;;;;;;5021942;28;20034;-90
2022/03/05 10:20:32;;;;;;;24.50;13.07;;;3.80;99.90;;;;;;5014241;28;20053;-88
2022/03/05 10:23:03;;;;;;;25.60;12.77;;;3.90;99.90;;;;;;5019073;28;20401;-86
2022/03/05 10:25:37;;;;;;;24.50;12.40;;;3.90;99.90;;;;;;5012546;28;20060;-87
2022/03/05 10:28:13;;;;;;;25.40;13.50;;;4.00;99.90;;;;;;5013288;28;20125;-90
2022/03/05 10:30:47;;;;;;;28.02;13.27;;;4.10;99.90;;;;;;4996568;28;20051;-87
2022/03/05 10:33:26;;;;;;;26.90;14.38;;;4.10;99.90;;;;;;5016495;28;20397;-88
2022/03/05 10:35:52;;;;;;;26.63;14.75;;;4.20;99.90;;;;;;5000953;28;20041;-89
2022/03/05 10:38:18;;;;;;;26.20;13.70;;;4.20;99.90;;;;;;4999933;28;20045;-89
2022/03/05 10:40:51;;;;;;;23.85;13.30;;;4.30;99.90;;;;;;5026521;28;20504;-88
2022/03/05 10:43:17;;;;;;;26.70;13.60;;;4.40;99.90;;;;;;5012816;28;20076;-90
2022/03/05 10:45:55;;;;;;;25.92;13.15;;;4.40;99.90;;;;;;5021082;28;20468;-91
2022/03/05 10:48:23;;;;;;;25.83;13.57;;;4.50;99.90;;;;;;5033349;28;20055;-89
2022/03/05 10:50:57;;;;;;;29.38;13.90;;;4.50;99.90;;;;;;5011608;28;20038;-89
2022/03/05 10:53:47;;;;;;;23.85;13.90;;;4.50;99.90;;;;;;5008615;28;20393;-89
2022/03/05 10:56:26;;;;;;;26.98;14.73;;;4.60;99.90;;;;;;5013403;28;20048;-91
2022/03/05 10:58:58;;;;;;;25.45;13.80;;;4.60;99.90;;;;;;5021678;28;20449;-90
2022/03/05 11:01:24;;;;;;;27.23;13.73;;;4.70;99.90;;;;;;4996937;28;20508;-89
2022/03/05 11:03:52;;;;;;;25.77;13.90;;;4.80;99.90;;;;;;5017221;28;20131;-89
2022/03/05 11:06:19;;;;;;;27.50;13.65;;;4.90;99.90;;;;;;5033491;28;20038;-89
2022/03/05 11:08:46;;;;;;;26.17;13.73;;;5.00;99.90;;;;;;5000138;28;20049;-89
2022/03/05 11:11:14;;;;;;;26.25;15.75;;;5.00;99.90;;;;;;5019608;28;20049;-88
2022/03/05 11:13:40;;;;;;;25.30;14.27;;;5.10;99.90;;;;;;5032607;28;20099;-92
2022/03/05 11:16:06;;;;;;;26.98;14.43;;;5.00;99.90;;;;;;5011516;28;20410;-89
2022/03/05 11:18:32;;;;;;;23.75;13.98;;;5.10;99.90;;;;;;5029975;28;20050;-90
2022/03/05 11:20:59;;;;;;;25.92;14.23;;;5.10;99.90;;;;;;5000883;28;20041;-93
2022/03/05 11:23:25;;;;;;;27.77;14.40;;;5.10;99.90;;;;;;5032208;28;20041;-88
2022/03/05 11:25:52;;;;;;;27.40;15.50;;;5.10;99.90;;;;;;5017660;28;20102;-90
2022/03/05 11:28:22;;;;;;;25.58;14.55;;;5.20;99.90;;;;;;5031030;28;20056;-91
2022/03/05 11:30:54;;;;;;;28.05;15.60;;;5.30;99.90;;;;;;5018695;28;20041;-89
2022/03/05 11:33:33;;;;;;;28.02;14.38;;;5.30;99.90;;;;;;5013024;28;20051;-93
2022/03/05 11:36:03;;;;;;;26.58;14.52;;;5.30;99.90;;;;;;5020345;28;20045;-89
2022/03/05 11:38:37;;;;;;;26.70;15.13;;;5.40;99.90;;;;;;4999926;28;20053;-88
2022/03/05 11:41:25;;;;;;;28.38;15.55;;;5.40;99.90;;;;;;5033324;28;20072;-88
2022/03/05 11:43:50;;;;;;;27.20;15.25;;;5.40;99.90;;;;;;4992103;28;20053;-90
2022/03/05 11:46:24;;;;;;;25.65;15.35;;;5.50;99.90;;;;;;5013582;28;20046;-90
2022/03/05 11:49:06;;;;;;;26.00;15.05;;;5.50;99.90;;;;;;5020966;28;20481;-91
2022/03/05 11:51:31;;;;;;;;;;;5.60;99.90;;;;;;5003126;28;20036;-90
2022/03/05 11:54:05;;;;;;;28.77;16.50;;;5.70;99.90;;;;;;5012071;28;20431;-88
2022/03/05 11:56:31;;;;;;;25.38;14.63;;;5.70;99.90;;;;;;5017264;28;20075;-90
2022/03/05 11:58:56;;;;;;;27.60;15.65;;;5.70;99.90;;;;;;5021329;28;20045;-89
2022/03/05 12:01:34;;;;;;;28.25;15.52;;;5.80;99.90;;;;;;5019017;28;20052;-90
2022/03/05 12:04:04;;;;;;;27.67;16.50;;;5.80;97.60;;;;;;5023328;28;20052;-87
2022/03/05 12:06:42;;;;;;;28.00;15.43;;;5.80;99.90;;;;;;5013348;28;20041;-91
2022/03/05 12:09:35;;;;;;;25.83;15.93;;;5.90;99.90;;;;;;5035511;28;20055;-92
2022/03/05 12:12:03;;;;;;;26.60;14.90;;;6.10;96.40;;;;;;5029114;28;20037;-93
2022/03/05 12:15:03;;;;;;;28.88;16.17;;;6.10;98.70;;;;;;5011569;28;20037;-89
2022/03/05 12:17:49;;;;;;;25.92;15.98;;;6.10;92.50;;;;;;5025453;28;20037;-93
2022/03/05 12:20:19;;;;;;;26.67;16.45;;;6.10;94.30;;;;;;5004198;28;20053;-90
2022/03/05 12:23:01;;;;;;;27.70;16.60;;;6.10;91.80;;;;;;5004653;28;20413;-89
2022/03/05 12:25:28;;;;;;;27.92;16.55;;;6.30;99.50;;;;;;4996236;28;20432;-92
2022/03/05 12:27:56;;;;;;;26.75;16.58;;;6.50;99.20;;;;;;5018694;28;20087;-94
2022/03/05 12:30:25;;;;;;;26.25;16.33;;;6.50;92.70;;;;;;5013165;28;20053;-91
2022/03/05 12:32:52;;;;;;;27.55;16.75;;;6.50;93.30;;;;;;5015857;28;20056;-91
2022/03/05 12:35:19;;;;;;;25.45;16.88;;;6.50;95.00;;;;;;5020584;28;20110;-93
2022/03/05 12:37:45;;;;;;;27.80;15.95;;;6.50;94.30;;;;;;5035872;28;20037;-93
2022/03/05 12:40:12;;;;;;;26.90;15.70;;;6.60;93.50;;;;;;5019556;28;20478;-90
2022/03/05 12:42:40;;;;;;;27.70;17.67;;;6.60;91.90;;;;;;5006004;28;20051;-89